Time;durP1;ratioP1;P1;durP2;ratioP2;P2;SDS_P1;SDS_P2;PMS_P1;PMS_P2;Temp;Humidity;BMP_temperature;BMP_pressure;BME280_temperature;BME280_humidity;BME280_pressure;Samples;Min_cycle;Max_cycle;Signal;HPM_P1;HPM_P2
2022/05/23 00:02:16;;;;;;;2.05;0.70;;;21.80;61.60;;;;;;5133117;28;20038;-56
2022/05/23 00:04:41;;;;;;;3.03;0.80;;;21.80;61.60;;;;;;5132718;28;20412;-56
2022/05/23 00:07:12;;;;;;;1.88;0.60;;;21.80;61.60;;;;;;5132683;28;20068;-56
2022/05/23 00:09:38;;;;;;;1.60;0.80;;;21.80;61.60;;;;;;5132427;28;20122;-57
2022/05/23 00:12:04;;;;;;;2.55;0.70;;;21.80;61.60;;;;;;5132530;28;20169;-57
2022/05/23 00:14:30;;;;;;;2.13;0.70;;;21.70;61.50;;;;;;5132726;28;20162;-57
2022/05/23 00:16:56;;;;;;;2.30;0.70;;;21.70;61.50;;;;;;5132928;28;20043;-57
2022/05/23 00:19:22;;;;;;;2.40;0.80;;;21.70;61.50;;;;;;5132036;28;20062;-57
2022/05/23 00:21:48;;;;;;;1.23;0.60;;;21.70;61.50;;;;;;5133014;28;20043;-57
2022/05/23 00:24:14;;;;;;;1.70;0.70;;;21.70;61.50;;;;;;5133201;28;20043;-57
2022/05/23 00:26:40;;;;;;;2.47;0.68;;;21.70;61.50;;;;;;5133946;27;20075;-57
2022/05/23 00:29:06;;;;;;;2.50;0.68;;;21.70;61.50;;;;;;5136732;27;20114;-57
2022/05/23 00:31:31;;;;;;;2.28;0.80;;;21.70;61.50;;;;;;5136548;27;20538;-56
2022/05/23 00:36:41;;;;;;;2.50;1.05;;;21.70;61.50;;;;;;5136168;27;20452;-57
2022/05/23 00:39:07;;;;;;;3.03;0.70;;;21.70;61.40;;;;;;5136697;27;20031;-57
2022/05/23 00:44:30;;;;;;;1.77;0.65;;;21.70;61.30;;;;;;5136607;27;20043;-57
2022/05/23 00:47:02;;;;;;;2.78;1.00;;;21.70;61.40;;;;;;5135910;27;20498;-57
2022/05/23 00:49:32;;;;;;;2.05;0.75;;;21.70;61.30;;;;;;5135717;27;20043;-57
2022/05/23 00:51:59;;;;;;;2.42;0.80;;;21.70;61.30;;;;;;5136176;27;20164;-57
2022/05/23 00:54:25;;;;;;;2.33;0.70;;;21.70;61.30;;;;;;5117084;27;20402;-57
2022/05/23 00:56:51;;;;;;;2.10;0.80;;;21.60;61.30;;;;;;5100661;27;20122;-57
2022/05/23 00:59:25;;;;;;;2.42;0.70;;;21.70;61.30;;;;;;5100906;27;20043;-57
2022/05/23 01:01:50;;;;;;;3.17;0.80;;;21.70;61.30;;;;;;5116983;27;20070;-57
2022/05/23 01:04:16;;;;;;;2.15;0.88;;;21.60;61.30;;;;;;5117982;27;20123;-57
2022/05/23 01:06:42;;;;;;;1.98;0.70;;;21.60;61.30;;;;;;5135895;27;20497;-57
2022/05/23 01:09:07;;;;;;;1.65;0.80;;;21.60;61.20;;;;;;5135310;27;20043;-56
2022/05/23 01:11:33;;;;;;;1.90;0.75;;;21.60;61.20;;;;;;5136097;27;20039;-57
2022/05/23 01:13:58;;;;;;;2.35;0.90;;;21.60;61.20;;;;;;5135673;27;20674;-56
2022/05/23 01:16:24;;;;;;;1.80;0.57;;;21.60;61.20;;;;;;5135165;27;20192;-56
2022/05/23 01:18:50;;;;;;;2.42;0.73;;;21.60;61.20;;;;;;5135243;27;20494;-56
2022/05/23 01:21:51;;;;;;;1.42;0.52;;;21.60;61.10;;;;;;5135946;27;20043;-56
2022/05/23 01:24:21;;;;;;;1.90;0.70;;;21.60;61.10;;;;;;5098558;27;20123;-56
2022/05/23 01:26:47;;;;;;;1.35;0.70;;;21.60;61.20;;;;;;5116810;27;20427;-56
2022/05/23 01:29:13;;;;;;;1.85;0.77;;;21.60;61.10;;;;;;5135506;27;20054;-56
2022/05/23 01:31:39;;;;;;;0.95;0.50;;;21.60;61.10;;;;;;5134996;27;20054;-56
2022/05/23 01:34:05;;;;;;;1.42;0.70;;;21.60;61.10;;;;;;5135521;27;20047;-56
2022/05/23 01:36:30;;;;;;;1.10;0.70;;;21.60;61.10;;;;;;5134415;27;20039;-56
2022/05/23 01:38:56;;;;;;;2.13;0.80;;;21.60;61.10;;;;;;5134645;27;20060;-56
2022/05/23 01:41:21;;;;;;;3.13;0.70;;;21.60;61.10;;;;;;5135485;27;20060;-57
2022/05/23 01:43:47;;;;;;;2.25;0.70;;;21.60;61.20;;;;;;5133010;27;20043;-56
2022/05/23 01:46:12;;;;;;;1.20;0.55;;;21.60;61.10;;;;;;5135229;27;20038;-57
2022/05/23 01:48:38;;;;;;;2.08;0.77;;;21.50;61.10;;;;;;5135206;27;20054;-57
2022/05/23 01:51:03;;;;;;;1.23;0.60;;;21.60;61.10;;;;;;5134089;27;20091;-57
2022/05/23 01:53:29;;;;;;;1.48;0.70;;;21.50;61.00;;;;;;5135134;27;20043;-57
2022/05/23 01:55:55;;;;;;;1.83;0.60;;;21.50;61.00;;;;;;5134817;27;20394;-57
2022/05/23 02:01:13;;;;;;;1.67;0.70;;;21.50;61.00;;;;;;5133887;27;20383;-56
2022/05/23 02:01:15;;;;;;;1.23;0.60;;;21.50;61.00;;;;;;5134335;27;20043;-56
2022/05/23 02:03:45;;;;;;;2.42;0.70;;;21.50;61.00;;;;;;5133203;27;20062;-57
2022/05/23 02:06:10;;;;;;;1.70;0.70;;;21.50;61.00;;;;;;5133866;27;20039;-57
2022/05/23 02:08:36;;;;;;;2.28;0.65;;;21.50;61.00;;;;;;5134689;27;20037;-57
2022/05/23 02:11:03;;;;;;;1.85;0.77;;;21.50;61.00;;;;;;5134576;27;20043;-57
2022/05/23 02:13:31;;;;;;;2.47;0.65;;;21.50;61.00;;;;;;5134017;27;20040;-56
2022/05/23 02:15:56;;;;;;;;;;;21.50;61.00;;;;;;5134847;27;20049;-57
2022/05/23 02:18:22;;;;;;;2.05;0.50;;;21.40;60.90;;;;;;5134476;27;20345;-57
2022/05/23 02:20:48;;;;;;;1.20;0.60;;;21.50;61.00;;;;;;5133582;27;20039;-57
2022/05/23 02:23:13;;;;;;;1.65;0.70;;;21.50;61.00;;;;;;5134709;27;20047;-57
2022/05/23 02:25:39;;;;;;;1.98;0.60;;;21.50;61.00;;;;;;5134671;27;20394;-57
2022/05/23 02:28:04;;;;;;;2.33;0.70;;;21.50;61.00;;;;;;5133554;27;20189;-57
2022/05/23 02:30:30;;;;;;;1.45;0.75;;;21.50;61.00;;;;;;5134459;27;20031;-57
2022/05/23 02:32:55;;;;;;;0.85;0.50;;;21.50;61.00;;;;;;5133493;27;20467;-57
2022/05/23 02:35:21;;;;;;;2.17;0.70;;;21.40;60.90;;;;;;5134513;27;20546;-56
2022/05/23 02:37:47;;;;;;;1.25;0.60;;;21.40;60.90;;;;;;5134170;27;20423;-57
2022/05/23 02:40:12;;;;;;;1.25;0.50;;;21.40;60.90;;;;;;5133161;27;20047;-57
2022/05/23 02:42:38;;;;;;;1.77;0.60;;;21.40;60.90;;;;;;5134193;27;20122;-56
2022/05/23 02:45:06;;;;;;;1.55;0.70;;;21.40;60.90;;;;;;5133810;27;20039;-56
2022/05/23 02:47:32;;;;;;;1.75;0.65;;;21.40;60.90;;;;;;5133492;27;20047;-56
2022/05/23 02:49:58;;;;;;;2.08;0.60;;;21.40;60.80;;;;;;5133501;27;20035;-56
2022/05/23 02:52:24;;;;;;;1.02;0.50;;;21.40;60.80;;;;;;5133846;27;20048;-56
2022/05/23 02:54:49;;;;;;;1.20;0.60;;;21.40;60.80;;;;;;5132885;27;20046;-56
2022/05/23 02:57:15;;;;;;;2.08;0.70;;;21.40;60.80;;;;;;5134114;27;20050;-56
2022/05/23 02:59:40;;;;;;;2.88;0.60;;;21.40;60.80;;;;;;5133495;27;20118;-56
2022/05/23 03:04:50;;;;;;;1.67;0.50;;;21.40;60.80;;;;;;5133759;27;20070;-56
2022/05/23 03:07:15;;;;;;;1.67;0.88;;;21.40;60.80;;;;;;5134030;27;20602;-57
2022/05/23 03:09:44;;;;;;;1.27;0.60;;;21.40;60.80;;;;;;5132887;27;20130;-56
2022/05/23 03:12:10;;;;;;;1.67;0.60;;;21.40;60.80;;;;;;5133490;27;20386;-56
2022/05/23 03:14:35;;;;;;;2.03;0.77;;;21.40;60.80;;;;;;5133464;27;20534;-57
2022/05/23 03:17:03;;;;;;;1.77;0.60;;;21.40;60.80;;;;;;5131657;27;20039;-57
2022/05/23 03:19:28;;;;;;;2.37;0.67;;;21.30;60.70;;;;;;5133327;27;20402;-56
2022/05/23 03:27:22;;;;;;;2.65;0.75;;;21.30;60.70;;;;;;5133798;28;20043;-57
2022/05/23 03:29:48;;;;;;;1.75;0.75;;;21.30;60.70;;;;;;5132252;28;20043;-57
2022/05/23 03:32:13;;;;;;;1.20;0.60;;;21.30;60.70;;;;;;5133566;28;20035;-56
2022/05/23 03:34:39;;;;;;;0.85;0.57;;;21.30;60.70;;;;;;5133801;28;20055;-57
2022/05/23 03:37:07;;;;;;;2.63;0.75;;;21.30;60.60;;;;;;5132476;28;20035;-57
2022/05/23 03:39:33;;;;;;;1.05;0.70;;;21.30;60.70;;;;;;5133602;28;20061;-57
2022/05/23 03:41:58;;;;;;;1.52;0.63;;;21.30;60.70;;;;;;5133268;28;20482;-57
2022/05/23 03:44:24;;;;;;;1.52;0.50;;;21.30;60.60;;;;;;5132724;28;20410;-57
2022/05/23 03:46:49;;;;;;;1.27;0.60;;;21.30;60.60;;;;;;5133222;28;20470;-57
2022/05/23 03:49:15;;;;;;;1.70;0.63;;;21.30;60.70;;;;;;5133600;28;20180;-56
2022/05/23 03:51:40;;;;;;;0.95;0.50;;;21.30;60.60;;;;;;5132358;28;20036;-56
2022/05/23 03:54:06;;;;;;;1.67;0.52;;;21.30;60.60;;;;;;5133573;28;20039;-56
2022/05/23 03:56:31;;;;;;;1.08;0.57;;;21.30;60.60;;;;;;5133464;28;20386;-56
2022/05/23 03:58:57;;;;;;;3.15;0.80;;;21.30;60.60;;;;;;5132180;28;20036;-57
2022/05/23 04:01:24;;;;;;;0.90;0.50;;;21.30;60.60;;;;;;5135159;27;20143;-56
2022/05/23 04:03:50;;;;;;;0.90;0.50;;;21.30;60.60;;;;;;5136921;27;20118;-56
2022/05/23 04:06:16;;;;;;;2.15;0.80;;;21.30;60.60;;;;;;5135937;27;20197;-56
2022/05/23 04:08:41;;;;;;;1.40;0.70;;;21.30;60.60;;;;;;5136821;27;20501;-57
2022/05/23 04:11:07;;;;;;;3.08;0.82;;;21.30;60.60;;;;;;5137231;27;20092;-57
2022/05/23 04:13:32;;;;;;;2.15;0.70;;;21.20;60.50;;;;;;5136039;27;20070;-57
2022/05/23 04:15:58;;;;;;;2.17;0.60;;;21.30;60.60;;;;;;5136941;27;20050;-57
2022/05/23 04:18:23;;;;;;;1.13;0.57;;;21.30;60.60;;;;;;5136007;27;20043;-57
2022/05/23 04:20:49;;;;;;;0.82;0.50;;;21.30;60.50;;;;;;5136735;27;20047;-57
2022/05/23 04:23:15;;;;;;;1.40;0.60;;;21.30;60.60;;;;;;5137023;27;20324;-56
2022/05/23 04:25:41;;;;;;;1.55;0.52;;;21.20;60.50;;;;;;5135833;27;20043;-56
2022/05/23 04:28:07;;;;;;;1.45;0.60;;;21.20;60.50;;;;;;5136828;27;20038;-56
2022/05/23 04:30:33;;;;;;;1.67;0.60;;;21.20;60.50;;;;;;5136738;27;20039;-56
2022/05/23 04:35:44;;;;;;;1.25;0.60;;;21.20;60.50;;;;;;5136572;27;20047;-56
2022/05/23 04:38:09;;;;;;;1.65;0.70;;;21.20;60.50;;;;;;5136411;27;20399;-56
2022/05/23 04:40:35;;;;;;;1.02;0.70;;;21.20;60.50;;;;;;5135797;27;20092;-56
2022/05/23 04:43:00;;;;;;;0.98;0.50;;;21.20;60.50;;;;;;5136404;27;20077;-56
2022/05/23 04:45:26;;;;;;;2.13;0.55;;;21.20;60.50;;;;;;5136451;27;20031;-56
2022/05/23 04:50:35;;;;;;;1.27;0.70;;;21.20;60.60;;;;;;5135788;27;20051;-57
2022/05/23 04:53:01;;;;;;;1.65;0.50;;;21.20;60.60;;;;;;5136106;27;20043;-57
2022/05/23 04:55:26;;;;;;;2.47;0.63;;;21.20;60.50;;;;;;5135515;27;20039;-57
2022/05/23 04:57:53;;;;;;;0.80;0.43;;;21.20;60.60;;;;;;5136110;27;20050;-57
2022/05/23 05:00:19;;;;;;;1.35;0.60;;;21.20;60.60;;;;;;5136107;27;20043;-57
2022/05/23 05:02:45;;;;;;;0.98;0.60;;;21.20;60.60;;;;;;5134902;27;20047;-57
2022/05/23 05:05:11;;;;;;;1.05;0.52;;;21.20;60.60;;;;;;5136313;27;20054;-57
2022/05/23 05:07:37;;;;;;;1.10;0.52;;;21.20;60.60;;;;;;5135039;27;20380;-57
2022/05/23 05:10:04;;;;;;;1.02;0.43;;;21.20;60.60;;;;;;5135422;27;20050;-57
2022/05/23 05:12:29;;;;;;;1.73;0.50;;;21.20;60.60;;;;;;5135803;27;20046;-56
2022/05/23 05:14:55;;;;;;;2.65;0.60;;;21.20;60.70;;;;;;5134659;27;20047;-56
2022/05/23 05:17:21;;;;;;;2.15;0.65;;;21.20;60.70;;;;;;5136018;27;20039;-57
2022/05/23 05:19:47;;;;;;;2.42;0.93;;;21.20;60.70;;;;;;5135100;27;20051;-57
2022/05/23 05:22:12;;;;;;;2.38;0.70;;;21.20;60.60;;;;;;5135258;27;20135;-57
2022/05/23 05:24:38;;;;;;;1.88;0.60;;;21.20;60.60;;;;;;5135942;27;20050;-57
2022/05/23 05:27:04;;;;;;;1.77;0.65;;;21.20;60.70;;;;;;5135273;27;20393;-56
2022/05/23 05:29:29;;;;;;;1.88;0.55;;;21.20;60.70;;;;;;5134909;27;20063;-57
2022/05/23 05:31:58;;;;;;;2.75;0.80;;;21.20;60.60;;;;;;5135422;27;20043;-57
2022/05/23 05:34:27;;;;;;;0.82;0.57;;;21.20;60.60;;;;;;5135788;27;20065;-57
2022/05/23 05:36:53;;;;;;;;;;;21.20;60.60;;;;;;5099435;27;20383;-57
2022/05/23 05:39:20;;;;;;;1.55;0.60;;;21.20;60.70;;;;;;5135492;27;19923;-57
2022/05/23 05:42:12;;;;;;;0.70;0.60;;;21.20;60.70;;;;;;5117071;27;20154;-57
2022/05/23 05:44:40;;;;;;;2.97;0.90;;;21.20;60.80;;;;;;5116367;27;20053;-57
2022/05/23 05:47:08;;;;;;;0.98;0.50;;;21.20;60.80;;;;;;5135266;27;20091;-57
2022/05/23 05:49:35;;;;;;;1.15;0.60;;;21.20;60.80;;;;;;5135263;27;20047;-56
2022/05/23 05:52:01;;;;;;;3.20;0.82;;;21.20;60.90;;;;;;5133952;27;20410;-57
2022/05/23 05:54:28;;;;;;;1.70;0.75;;;21.30;61.00;;;;;;5135194;27;20047;-56
2022/05/23 05:56:54;;;;;;;2.53;0.60;;;21.30;61.00;;;;;;5116185;27;20058;-56
2022/05/23 05:59:19;;;;;;;2.42;0.70;;;21.30;61.00;;;;;;5135054;27;20547;-57
2022/05/23 06:01:45;;;;;;;1.95;0.70;;;21.30;61.10;;;;;;5099807;27;20043;-56
2022/05/23 06:04:10;;;;;;;1.77;0.65;;;21.40;61.00;;;;;;5134364;27;20039;-56
2022/05/23 06:12:05;;;;;;;3.03;0.80;;;21.40;61.00;;;;;;5134135;27;20044;-57
2022/05/23 06:14:30;;;;;;;3.10;0.75;;;21.40;61.00;;;;;;5134329;27;20039;-56
2022/05/23 06:16:56;;;;;;;3.10;0.80;;;21.40;61.10;;;;;;5133745;27;20371;-56
2022/05/23 06:19:21;;;;;;;3.88;0.90;;;21.50;61.10;;;;;;5133707;27;20055;-56
2022/05/23 06:21:47;;;;;;;4.32;1.02;;;21.50;61.10;;;;;;5133796;27;20169;-57
2022/05/23 06:24:12;;;;;;;3.67;0.88;;;21.50;61.10;;;;;;5132467;27;20112;-56
2022/05/23 06:26:38;;;;;;;3.05;0.80;;;21.50;61.10;;;;;;5133206;27;20509;-56
2022/05/23 06:29:03;;;;;;;3.25;0.70;;;21.60;61.20;;;;;;5133725;27;20035;-56
2022/05/23 06:31:29;;;;;;;3.47;0.90;;;21.60;61.30;;;;;;5134209;27;20058;-56
2022/05/23 06:33:55;;;;;;;3.30;0.70;;;21.60;61.30;;;;;;5133341;27;20046;-56
2022/05/23 06:36:21;;;;;;;2.25;0.77;;;21.60;61.20;;;;;;5133971;27;20047;-56
2022/05/23 06:38:47;;;;;;;2.13;0.80;;;21.60;61.20;;;;;;5133317;27;20114;-55
2022/05/23 06:41:12;;;;;;;3.63;1.15;;;21.60;61.30;;;;;;5133066;27;20031;-56
2022/05/23 06:43:39;;;;;;;5.15;1.00;;;21.60;61.40;;;;;;5134076;27;20130;-56
2022/05/23 06:46:04;;;;;;;4.10;0.80;;;21.60;61.50;;;;;;5132658;27;20399;-56
2022/05/23 06:48:30;;;;;;;3.53;0.85;;;21.60;61.70;;;;;;5134032;27;20475;-55
2022/05/23 06:50:56;;;;;;;4.82;1.13;;;21.60;61.80;;;;;;5133717;27;20043;-55
2022/05/23 06:53:22;;;;;;;3.85;0.90;;;21.70;62.50;;;;;;5133298;27;20046;-55
2022/05/23 06:55:48;;;;;;;2.80;0.90;;;21.70;62.00;;;;;;5133642;27;20050;-56
2022/05/23 06:58:14;;;;;;;2.65;1.08;;;21.70;62.00;;;;;;5133642;27;20398;-55
2022/05/23 07:00:40;;;;;;;2.92;0.85;;;21.70;62.10;;;;;;5132702;27;20040;-55
2022/05/23 07:03:05;;;;;;;1.95;0.75;;;21.70;62.10;;;;;;5133902;27;20035;-55
2022/05/23 07:13:46;;;;;;;5.82;1.52;;;21.80;62.20;;;;;;5132927;27;20051;-56
2022/05/23 07:16:11;;;;;;;3.60;1.00;;;21.80;62.20;;;;;;5132530;27;20398;-56
2022/05/23 07:18:38;;;;;;;2.60;1.00;;;21.80;62.20;;;;;;5115082;27;20062;-56
2022/05/23 07:21:07;;;;;;;2.95;1.00;;;21.80;62.20;;;;;;5133316;27;20055;-56
2022/05/23 07:23:36;;;;;;;2.58;1.00;;;21.80;62.20;;;;;;5133460;28;20063;-57
2022/05/23 07:26:05;;;;;;;5.78;1.20;;;21.80;62.10;;;;;;5133290;28;20050;-56
2022/05/23 07:28:31;;;;;;;2.10;1.00;;;21.90;62.20;;;;;;5132408;28;20049;-56
2022/05/23 07:30:57;;;;;;;5.35;1.00;;;21.90;62.10;;;;;;5133174;28;20413;-56
2022/05/23 07:33:23;;;;;;;3.08;1.27;;;21.90;62.20;;;;;;5133206;28;20401;-56
2022/05/23 07:35:56;;;;;;;3.25;1.13;;;21.90;62.20;;;;;;5134931;27;20126;-56
2022/05/23 07:38:21;;;;;;;2.45;1.00;;;22.00;62.20;;;;;;5137486;27;20043;-56
2022/05/23 07:40:53;;;;;;;3.08;1.10;;;22.00;62.30;;;;;;5137317;27;20043;-56
2022/05/23 07:43:18;;;;;;;2.88;1.10;;;22.00;62.30;;;;;;5136924;27;20043;-56
2022/05/23 07:45:44;;;;;;;4.47;1.40;;;22.00;62.20;;;;;;5136399;27;20135;-56
2022/05/23 07:48:10;;;;;;;3.90;1.45;;;22.00;62.20;;;;;;5136981;27;20046;-56
2022/05/23 07:50:36;;;;;;;4.28;1.27;;;22.00;62.20;;;;;;5136602;27;20520;-56
2022/05/23 08:01:14;;;;;;;3.45;1.40;;;22.10;62.70;;;;;;5137438;27;20039;-56
2022/05/23 08:03:46;;;;;;;3.67;1.25;;;22.10;62.20;;;;;;5136141;27;20046;-56
2022/05/23 08:06:12;;;;;;;2.83;1.25;;;22.10;62.30;;;;;;5137398;27;20161;-56
2022/05/23 08:08:37;;;;;;;4.63;1.15;;;22.10;62.30;;;;;;5136937;27;20126;-56
2022/05/23 08:11:08;;;;;;;3.88;1.33;;;22.10;62.30;;;;;;5135913;27;20039;-56
2022/05/23 08:13:34;;;;;;;3.55;1.08;;;22.20;62.40;;;;;;5137267;27;20050;-56
2022/05/23 08:16:00;;;;;;;1.92;1.10;;;22.20;62.50;;;;;;5136725;27;20511;-56
2022/05/23 08:18:25;;;;;;;4.40;1.23;;;22.20;62.50;;;;;;5135734;27;20132;-56
2022/05/23 08:20:51;;;;;;;4.78;1.20;;;22.20;62.40;;;;;;5136744;27;20047;-56
2022/05/23 08:23:16;;;;;;;4.35;1.42;;;22.20;62.40;;;;;;5136961;27;20058;-56
2022/05/23 08:25:42;;;;;;;3.20;1.27;;;22.20;62.50;;;;;;5135873;27;20397;-56
2022/05/23 08:28:07;;;;;;;4.40;1.33;;;22.30;62.60;;;;;;5136914;27;20043;-56
2022/05/23 08:30:33;;;;;;;5.97;1.23;;;22.20;62.50;;;;;;5136717;27;20092;-56
2022/05/23 08:32:58;;;;;;;2.78;1.42;;;22.30;62.50;;;;;;5135330;27;20066;-56
2022/05/23 08:35:24;;;;;;;4.13;1.30;;;22.30;62.50;;;;;;5136823;27;20079;-56
2022/05/23 08:37:51;;;;;;;3.75;1.50;;;22.30;62.50;;;;;;5136337;27;20050;-56
2022/05/23 08:40:17;;;;;;;2.88;1.20;;;22.40;62.60;;;;;;5135453;27;20625;-56
2022/05/23 08:42:52;;;;;;;3.45;1.23;;;22.40;62.60;;;;;;5118051;27;20035;-56
2022/05/23 08:45:25;;;;;;;2.92;1.40;;;22.40;62.70;;;;;;5117862;27;20490;-56
2022/05/23 08:48:03;;;;;;;4.13;1.50;;;22.40;62.70;;;;;;5116500;27;20482;-56
2022/05/23 08:50:34;;;;;;;4.53;1.15;;;22.40;62.70;;;;;;5136336;27;20041;-56
2022/05/23 08:53:07;;;;;;;4.65;1.40;;;22.40;62.70;;;;;;5135377;27;20535;-56
2022/05/23 08:55:38;;;;;;;6.03;1.45;;;22.40;62.70;;;;;;5117704;27;20035;-57
2022/05/23 08:58:08;;;;;;;2.05;1.27;;;22.40;62.70;;;;;;5117265;27;20054;-58
2022/05/23 09:00:42;;;;;;;3.75;1.15;;;22.40;62.70;;;;;;5116430;27;20047;-56
2022/05/23 09:03:19;;;;;;;4.25;1.20;;;22.50;62.60;;;;;;5117790;27;20043;-56
2022/05/23 09:05:49;;;;;;;2.30;1.40;;;22.50;62.50;;;;;;5117650;27;20043;-56
2022/05/23 09:08:19;;;;;;;2.80;1.33;;;22.40;62.40;;;;;;5117048;27;20096;-56
2022/05/23 09:11:05;;;;;;;2.08;1.30;;;22.50;62.50;;;;;;5115020;27;20045;-56
2022/05/23 09:13:32;;;;;;;4.85;1.30;;;22.50;62.60;;;;;;5097193;28;20092;-60
2022/05/23 09:16:03;;;;;;;6.03;1.67;;;22.50;63.10;;;;;;5096142;28;20043;-56
2022/05/23 09:18:39;;;;;;;2.70;1.08;;;22.50;62.40;;;;;;5114670;28;20109;-56
2022/05/23 09:21:04;;;;;;;3.58;1.67;;;22.50;62.30;;;;;;5119555;27;20478;-56
2022/05/23 09:23:42;;;;;;;3.90;1.30;;;22.50;62.20;;;;;;5117578;27;20233;-56
2022/05/23 09:26:15;;;;;;;4.53;1.33;;;22.50;62.30;;;;;;5118112;27;20041;-56
2022/05/23 09:28:41;;;;;;;4.10;1.30;;;22.50;62.20;;;;;;5116411;27;20048;-56
2022/05/23 09:31:25;;;;;;;2.40;1.73;;;22.50;62.20;;;;;;5135300;27;20564;-56
2022/05/23 09:33:51;;;;;;;4.30;1.50;;;22.50;62.30;;;;;;5116882;27;20036;-56
2022/05/23 09:36:34;;;;;;;2.85;1.48;;;22.50;62.40;;;;;;5116687;27;20046;-56
2022/05/23 09:39:10;;;;;;;4.47;1.55;;;22.50;62.50;;;;;;5116441;27;20058;-56
2022/05/23 09:49:54;;;;;;;3.17;1.50;;;22.50;62.60;;;;;;5134250;27;20047;-56
2022/05/23 09:52:29;;;;;;;3.70;1.30;;;22.50;62.60;;;;;;5134969;27;20099;-56
2022/05/23 09:55:07;;;;;;;2.63;1.00;;;22.50;62.70;;;;;;5116688;27;20486;-56
2022/05/23 09:57:36;;;;;;;;;;;22.60;62.80;;;;;;5134831;27;20074;-55
2022/05/23 10:00:09;;;;;;;2.05;1.30;;;22.50;62.60;;;;;;5133369;27;20010;-56
2022/05/23 10:02:39;;;;;;;3.33;1.50;;;22.50;62.60;;;;;;5134650;27;20153;-55
2022/05/23 10:05:07;;;;;;;3.00;1.42;;;22.50;62.50;;;;;;5133976;27;20067;-56
2022/05/23 10:07:35;;;;;;;3.13;1.33;;;22.60;62.70;;;;;;5116657;27;20078;-56
2022/05/23 10:10:40;;;;;;;3.28;1.50;;;22.60;62.70;;;;;;5133603;27;20305;-56
2022/05/23 10:13:25;;;;;;;2.70;1.30;;;22.60;62.60;;;;;;5070811;28;20067;-56
2022/05/23 10:16:14;;;;;;;3.28;1.40;;;22.60;62.30;;;;;;5110427;27;20164;-56
2022/05/23 10:19:01;;;;;;;3.15;1.40;;;22.60;62.30;;;;;;5117813;27;20139;-56
2022/05/23 10:21:34;;;;;;;1.90;1.13;;;22.60;62.20;;;;;;5135908;27;20047;-56
2022/05/23 10:24:18;;;;;;;3.47;1.48;;;22.60;62.20;;;;;;5154435;27;20545;-56
2022/05/23 10:26:51;;;;;;;5.53;1.35;;;22.60;62.20;;;;;;5154977;27;20071;-56
2022/05/23 10:29:32;;;;;;;2.72;1.40;;;22.60;62.10;;;;;;5136707;27;20175;-55
2022/05/23 10:32:09;;;;;;;3.03;1.50;;;22.60;62.10;;;;;;5135258;27;20485;-56
2022/05/23 10:34:49;;;;;;;2.92;1.42;;;22.70;62.20;;;;;;5155126;27;20034;-56
2022/05/23 10:37:25;;;;;;;2.45;1.20;;;22.70;62.20;;;;;;5155282;27;20039;-55
2022/05/23 10:43:01;;;;;;;2.90;1.48;;;22.60;62.10;;;;;;5090716;28;20040;-56
2022/05/23 10:45:36;;;;;;;1.52;1.00;;;22.70;62.10;;;;;;5127103;27;20054;-56
2022/05/23 10:48:33;;;;;;;2.38;1.27;;;22.70;62.10;;;;;;5154754;27;20114;-56
2022/05/23 10:51:29;;;;;;;7.82;1.55;;;22.70;61.90;;;;;;5139061;27;20512;-56
2022/05/23 10:54:16;;;;;;;1.85;1.30;;;22.70;61.90;;;;;;5134832;27;20050;-56
2022/05/23 10:57:01;;;;;;;2.97;1.42;;;22.60;61.90;;;;;;5154435;27;20049;-56
2022/05/23 10:59:53;;;;;;;4.53;1.38;;;22.70;61.80;;;;;;5153947;27;20043;-56
2022/05/23 11:02:43;;;;;;;3.40;1.30;;;22.60;61.70;;;;;;5137365;27;20086;-56
2022/05/23 11:05:23;;;;;;;3.17;1.40;;;22.70;62.30;;;;;;5154686;27;20049;-57
2022/05/23 11:08:00;;;;;;;2.58;1.20;;;22.70;61.70;;;;;;5153558;27;20045;-56
2022/05/23 11:10:49;;;;;;;3.75;1.70;;;22.60;61.80;;;;;;5154175;27;20087;-56
2022/05/23 11:13:40;;;;;;;5.88;1.98;;;22.70;61.70;;;;;;5095136;28;20092;-56
2022/05/23 11:16:38;;;;;;;6.35;2.33;;;22.70;61.80;;;;;;5097630;28;20042;-57
2022/05/23 11:19:36;;;;;;;5.55;2.10;;;22.70;61.80;;;;;;5101186;28;20520;-56
2022/05/23 11:22:07;;;;;;;7.43;2.58;;;22.70;61.80;;;;;;5112062;28;20053;-56
2022/05/23 11:24:37;;;;;;;6.70;2.00;;;22.70;61.80;;;;;;5094948;28;20048;-56
2022/05/23 11:35:48;;;;;;;6.05;2.10;;;22.70;61.30;;;;;;5096318;28;20123;-57
2022/05/23 11:38:15;;;;;;;7.00;1.95;;;22.70;61.10;;;;;;5112769;28;20411;-57
2022/05/23 11:40:44;;;;;;;8.18;2.40;;;22.70;61.00;;;;;;5115818;27;20052;-57
2022/05/23 11:43:10;;;;;;;8.07;2.20;;;22.70;60.90;;;;;;5153586;27;20047;-56
2022/05/23 11:48:41;;;;;;;7.35;2.35;;;22.70;60.80;;;;;;5107054;27;20447;-56
2022/05/23 11:51:36;;;;;;;9.98;2.35;;;22.70;60.80;;;;;;5154199;27;20038;-56
2022/05/23 11:54:12;;;;;;;12.38;2.45;;;22.70;60.80;;;;;;5153939;27;20034;-56
2022/05/23 11:56:48;;;;;;;7.28;2.40;;;22.70;60.90;;;;;;5153210;27;20043;-57
2022/05/23 11:59:25;;;;;;;9.85;1.88;;;22.80;60.90;;;;;;5153875;27;20072;-56
2022/05/23 12:02:06;;;;;;;8.40;1.98;;;22.80;60.90;;;;;;5153827;27;20045;-56
2022/05/23 12:04:32;;;;;;;4.43;1.90;;;22.80;60.80;;;;;;5153360;27;20130;-57
2022/05/23 12:06:58;;;;;;;7.03;2.47;;;22.80;60.90;;;;;;5135373;27;20141;-56
2022/05/23 12:09:26;;;;;;;8.15;2.00;;;22.80;60.90;;;;;;5154055;27;20050;-56
2022/05/23 12:11:52;;;;;;;8.32;2.60;;;22.80;60.80;;;;;;5134625;27;20095;-56
2022/05/23 12:14:42;;;;;;;6.95;1.98;;;22.80;60.80;;;;;;5154021;27;20440;-56
2022/05/23 12:17:30;;;;;;;6.10;2.00;;;22.80;60.90;;;;;;5134820;27;20378;-56
2022/05/23 12:20:01;;;;;;;6.00;2.03;;;22.80;60.90;;;;;;5135270;27;20055;-56
2022/05/23 12:22:32;;;;;;;6.50;2.22;;;22.80;60.90;;;;;;5137341;27;20122;-56
2022/05/23 12:25:07;;;;;;;6.97;2.35;;;22.80;60.90;;;;;;5156684;27;20092;-56
2022/05/23 12:27:45;;;;;;;7.88;2.00;;;22.80;60.90;;;;;;5157027;27;20456;-56
2022/05/23 12:30:24;;;;;;;6.38;1.80;;;22.80;60.90;;;;;;5157301;27;20490;-56
2022/05/23 12:32:58;;;;;;;8.93;2.20;;;22.80;61.00;;;;;;5156562;27;20043;-56
2022/05/23 12:35:40;;;;;;;5.57;1.90;;;22.80;61.00;;;;;;5157297;27;20546;-56
2022/05/23 12:38:36;;;;;;;4.93;2.47;;;22.80;60.90;;;;;;5156840;27;20076;-56
2022/05/23 12:41:44;;;;;;;4.85;2.60;;;22.80;61.00;;;;;;5156905;27;20042;-56
2022/05/23 12:44:25;;;;;;;;;;;22.80;61.00;;;;;;5143600;27;20050;-56
2022/05/23 12:47:07;;;;;;;4.00;1.65;;;22.80;61.10;;;;;;5137812;27;20377;-56
2022/05/23 12:49:42;;;;;;;6.43;2.20;;;22.80;61.20;;;;;;5140393;27;20047;-56
2022/05/23 12:52:23;;;;;;;9.15;2.17;;;22.80;61.20;;;;;;5156598;27;20046;-56
2022/05/23 12:55:11;;;;;;;8.52;1.70;;;22.80;61.20;;;;;;5156798;27;20087;-56
2022/05/23 12:57:49;;;;;;;8.57;1.90;;;22.70;61.20;;;;;;5138436;27;20139;-56
2022/05/23 13:00:21;;;;;;;;;;;22.80;61.20;;;;;;5138121;27;20146;-56
2022/05/23 13:03:08;;;;;;;6.20;1.90;;;22.80;61.30;;;;;;5138259;27;19966;-56
2022/05/23 13:05:46;;;;;;;4.60;1.60;;;22.80;61.40;;;;;;5138520;27;20043;-57
2022/05/23 13:08:20;;;;;;;6.53;1.90;;;22.70;61.40;;;;;;5121537;27;20039;-56
2022/05/23 13:10:57;;;;;;;4.35;1.67;;;22.70;61.30;;;;;;5156432;27;20152;-56
2022/05/23 13:13:34;;;;;;;5.50;2.25;;;22.70;61.40;;;;;;5137755;27;20070;-57
2022/05/23 13:16:26;;;;;;;7.88;1.98;;;22.70;61.40;;;;;;5156501;27;20055;-56
2022/05/23 13:27:07;;;;;;;3.65;1.92;;;22.70;61.50;;;;;;5140241;27;20051;-56
2022/05/23 13:29:33;;;;;;;3.58;1.80;;;22.70;61.60;;;;;;5156528;27;20043;-56
2022/05/23 13:32:04;;;;;;;4.82;1.88;;;22.70;61.60;;;;;;5137709;27;20121;-56
2022/05/23 13:34:37;;;;;;;4.10;1.80;;;22.70;61.60;;;;;;5155312;27;20090;-56
2022/05/23 13:37:03;;;;;;;3.40;1.58;;;22.70;61.60;;;;;;5156015;27;20073;-56
2022/05/23 13:39:29;;;;;;;4.20;1.67;;;22.70;61.60;;;;;;5137743;27;20070;-56
2022/05/23 13:41:56;;;;;;;5.90;1.92;;;22.70;61.60;;;;;;5155193;27;20038;-56
2022/05/23 13:44:28;;;;;;;4.20;1.98;;;22.70;61.60;;;;;;5156146;27;20061;-57
2022/05/23 13:47:08;;;;;;;3.05;2.08;;;22.70;61.60;;;;;;5155951;27;20130;-56
2022/05/23 13:49:37;;;;;;;4.93;1.80;;;22.70;61.70;;;;;;5138200;27;20069;-56
2022/05/23 13:52:04;;;;;;;3.67;1.80;;;22.70;61.80;;;;;;5120169;27;20529;-57
2022/05/23 13:54:50;;;;;;;5.70;1.85;;;22.60;61.70;;;;;;5137573;27;20045;-57
2022/05/23 13:57:23;;;;;;;3.63;1.60;;;22.70;61.80;;;;;;5121211;27;20042;-56
2022/05/23 13:59:57;;;;;;;4.60;1.95;;;22.60;61.80;;;;;;5154247;27;20050;-56
2022/05/23 14:02:30;;;;;;;3.45;1.75;;;22.70;61.90;;;;;;5155161;27;20039;-57
2022/05/23 14:04:55;;;;;;;3.17;1.52;;;22.60;61.80;;;;;;5138058;27;20135;-57
2022/05/23 14:07:29;;;;;;;3.95;1.85;;;22.60;61.80;;;;;;5120223;27;20504;-56
2022/05/23 14:09:55;;;;;;;4.30;1.63;;;22.60;61.80;;;;;;5154693;27;20058;-57
2022/05/23 14:12:28;;;;;;;3.45;1.83;;;22.70;61.90;;;;;;5137243;27;20495;-56
2022/05/23 14:15:21;;;;;;;3.67;1.77;;;22.60;61.80;;;;;;5155265;27;20106;-56
2022/05/23 14:17:50;;;;;;;4.03;1.63;;;22.70;61.90;;;;;;5150143;27;20082;-57